sensor_id;sensor_type;location;lat;lon;timestamp;P1;durP1;ratioP1;P2;durP2;ratioP2
73672;SDS011;61972;19.480;-99.240;2023-02-11T00:02:07;17.55;;;12.52;;
73672;SDS011;61972;19.480;-99.240;2023-02-11T00:04:33;20.58;;;12.30;;
73672;SDS011;61972;19.480;-99.240;2023-02-11T00:06:59;18.67;;;12.15;;
73672;SDS011;61972;19.480;-99.240;2023-02-11T00:09:26;21.63;;;12.43;;
73672;SDS011;61972;19.480;-99.240;2023-02-11T00:11:52;19.00;;;11.35;;
73672;SDS011;61972;19.480;-99.240;2023-02-11T00:14:18;20.80;;;12.07;;
73672;SDS011;61972;19.480;-99.240;2023-02-11T00:16:44;18.42;;;11.75;;
73672;SDS011;61972;19.480;-99.240;2023-02-11T00:19:10;18.02;;;12.05;;
73672;SDS011;61972;19.480;-99.240;2023-02-11T00:21:36;16.40;;;11.70;;
73672;SDS011;61972;19.480;-99.240;2023-02-11T00:24:02;15.27;;;11.20;;
73672;SDS011;61972;19.480;-99.240;2023-02-11T00:26:30;15.10;;;11.77;;
73672;SDS011;61972;19.480;-99.240;2023-02-11T00:28:58;17.73;;;11.00;;
73672;SDS011;61972;19.480;-99.240;2023-02-11T00:31:25;17.70;;;11.55;;
73672;SDS011;61972;19.480;-99.240;2023-02-11T00:33:52;14.87;;;11.37;;
73672;SDS011;61972;19.480;-99.240;2023-02-11T00:36:23;16.05;;;10.88;;
73672;SDS011;61972;19.480;-99.240;2023-02-11T00:38:51;15.88;;;10.95;;
73672;SDS011;61972;19.480;-99.240;2023-02-11T00:41:18;16.70;;;10.75;;
73672;SDS011;61972;19.480;-99.240;2023-02-11T00:43:45;18.15;;;10.68;;
73672;SDS011;61972;19.480;-99.240;2023-02-11T00:46:11;14.43;;;10.10;;
73672;SDS011;61972;19.480;-99.240;2023-02-11T00:48:38;16.13;;;10.40;;
73672;SDS011;61972;19.480;-99.240;2023-02-11T00:51:04;17.02;;;10.20;;
73672;SDS011;61972;19.480;-99.240;2023-02-11T00:53:31;16.23;;;10.05;;
73672;SDS011;61972;19.480;-99.240;2023-02-11T00:55:58;18.05;;;10.10;;
73672;SDS011;61972;19.480;-99.240;2023-02-11T00:58:25;15.67;;;9.10;;
73672;SDS011;61972;19.480;-99.240;2023-02-11T01:00:52;17.48;;;9.82;;
73672;SDS011;61972;19.480;-99.240;2023-02-11T01:03:19;12.38;;;9.05;;
73672;SDS011;61972;19.480;-99.240;2023-02-11T01:05:45;18.00;;;9.48;;
73672;SDS011;61972;19.480;-99.240;2023-02-11T01:08:11;15.35;;;9.52;;
73672;SDS011;61972;19.480;-99.240;2023-02-11T01:10:37;15.87;;;8.43;;
73672;SDS011;61972;19.480;-99.240;2023-02-11T01:13:03;18.08;;;8.77;;
73672;SDS011;61972;19.480;-99.240;2023-02-11T01:15:31;21.58;;;8.82;;
73672;SDS011;61972;19.480;-99.240;2023-02-11T01:17:57;17.27;;;8.63;;
73672;SDS011;61972;19.480;-99.240;2023-02-11T01:20:25;17.20;;;8.43;;
73672;SDS011;61972;19.480;-99.240;2023-02-11T01:22:52;15.70;;;8.30;;
73672;SDS011;61972;19.480;-99.240;2023-02-11T01:25:18;14.45;;;7.78;;
73672;SDS011;61972;19.480;-99.240;2023-02-11T01:27:44;12.68;;;7.70;;
73672;SDS011;61972;19.480;-99.240;2023-02-11T01:30:11;14.18;;;8.10;;
73672;SDS011;61972;19.480;-99.240;2023-02-11T01:32:38;13.75;;;8.32;;
73672;SDS011;61972;19.480;-99.240;2023-02-11T01:35:05;11.43;;;7.73;;
73672;SDS011;61972;19.480;-99.240;2023-02-11T01:37:32;13.00;;;7.38;;
73672;SDS011;61972;19.480;-99.240;2023-02-11T01:40:00;13.80;;;7.70;;
73672;SDS011;61972;19.480;-99.240;2023-02-11T01:42:26;17.15;;;6.40;;
73672;SDS011;61972;19.480;-99.240;2023-02-11T01:44:54;11.68;;;6.72;;
73672;SDS011;61972;19.480;-99.240;2023-02-11T01:47:21;10.60;;;7.20;;
73672;SDS011;61972;19.480;-99.240;2023-02-11T01:49:48;11.90;;;6.47;;
73672;SDS011;61972;19.480;-99.240;2023-02-11T01:52:25;12.20;;;6.43;;
73672;SDS011;61972;19.480;-99.240;2023-02-11T01:54:56;13.27;;;6.63;;
73672;SDS011;61972;19.480;-99.240;2023-02-11T01:57:45;11.75;;;6.40;;
73672;SDS011;61972;19.480;-99.240;2023-02-11T02:02:57;9.85;;;6.28;;
73672;SDS011;61972;19.480;-99.240;2023-02-11T02:08:32;12.63;;;6.30;;
73672;SDS011;61972;19.480;-99.240;2023-02-11T02:11:03;9.45;;;5.65;;
73672;SDS011;61972;19.480;-99.240;2023-02-11T02:13:30;8.40;;;5.57;;
73672;SDS011;61972;19.480;-99.240;2023-02-11T02:15:58;9.98;;;6.30;;
73672;SDS011;61972;19.480;-99.240;2023-02-11T02:24:26;9.52;;;5.50;;
73672;SDS011;61972;19.480;-99.240;2023-02-11T02:27:13;10.10;;;5.10;;
73672;SDS011;61972;19.480;-99.240;2023-02-11T02:43:56;7.70;;;4.22;;
73672;SDS011;61972;19.480;-99.240;2023-02-11T02:46:24;8.00;;;4.13;;
73672;SDS011;61972;19.480;-99.240;2023-02-11T02:48:52;7.13;;;3.88;;
73672;SDS011;61972;19.480;-99.240;2023-02-11T02:51:30;8.73;;;4.10;;
73672;SDS011;61972;19.480;-99.240;2023-02-11T03:05:05;9.85;;;3.60;;
73672;SDS011;61972;19.480;-99.240;2023-02-11T03:07:44;8.77;;;3.47;;
73672;SDS011;61972;19.480;-99.240;2023-02-11T03:12:57;10.07;;;3.45;;
73672;SDS011;61972;19.480;-99.240;2023-02-11T03:15:25;6.68;;;3.10;;
73672;SDS011;61972;19.480;-99.240;2023-02-11T03:17:55;6.47;;;3.40;;
73672;SDS011;61972;19.480;-99.240;2023-02-11T03:20:24;6.47;;;2.73;;
73672;SDS011;61972;19.480;-99.240;2023-02-11T03:22:54;8.90;;;3.17;;
73672;SDS011;61972;19.480;-99.240;2023-02-11T03:25:30;13.25;;;3.40;;
73672;SDS011;61972;19.480;-99.240;2023-02-11T03:31:00;8.13;;;3.00;;
73672;SDS011;61972;19.480;-99.240;2023-02-11T03:33:36;9.20;;;2.80;;
73672;SDS011;61972;19.480;-99.240;2023-02-11T03:36:23;6.50;;;2.63;;
73672;SDS011;61972;19.480;-99.240;2023-02-11T03:39:16;10.20;;;2.50;;
73672;SDS011;61972;19.480;-99.240;2023-02-11T03:41:46;10.85;;;2.95;;
73672;SDS011;61972;19.480;-99.240;2023-02-11T03:44:14;8.68;;;2.63;;
73672;SDS011;61972;19.480;-99.240;2023-02-11T03:46:42;5.60;;;2.40;;
73672;SDS011;61972;19.480;-99.240;2023-02-11T03:49:15;5.32;;;2.50;;
73672;SDS011;61972;19.480;-99.240;2023-02-11T03:51:44;6.75;;;2.60;;
73672;SDS011;61972;19.480;-99.240;2023-02-11T03:54:13;4.85;;;2.58;;
73672;SDS011;61972;19.480;-99.240;2023-02-11T03:56:51;7.18;;;2.60;;
73672;SDS011;61972;19.480;-99.240;2023-02-11T03:59:19;8.77;;;2.50;;
73672;SDS011;61972;19.480;-99.240;2023-02-11T04:01:46;7.10;;;2.20;;
73672;SDS011;61972;19.480;-99.240;2023-02-11T04:04:12;5.95;;;2.83;;
73672;SDS011;61972;19.480;-99.240;2023-02-11T04:06:38;4.22;;;2.20;;
73672;SDS011;61972;19.480;-99.240;2023-02-11T04:09:04;3.75;;;2.05;;
73672;SDS011;61972;19.480;-99.240;2023-02-11T04:11:30;6.17;;;2.40;;
73672;SDS011;61972;19.480;-99.240;2023-02-11T04:13:57;7.15;;;2.08;;
73672;SDS011;61972;19.480;-99.240;2023-02-11T04:16:23;4.68;;;2.42;;
73672;SDS011;61972;19.480;-99.240;2023-02-11T04:18:49;4.25;;;2.13;;
73672;SDS011;61972;19.480;-99.240;2023-02-11T04:21:15;4.80;;;2.40;;
73672;SDS011;61972;19.480;-99.240;2023-02-11T04:23:41;5.50;;;2.40;;
73672;SDS011;61972;19.480;-99.240;2023-02-11T04:26:08;4.28;;;2.35;;
73672;SDS011;61972;19.480;-99.240;2023-02-11T04:28:34;6.38;;;2.55;;
73672;SDS011;61972;19.480;-99.240;2023-02-11T04:31:00;5.05;;;2.40;;
73672;SDS011;61972;19.480;-99.240;2023-02-11T04:33:26;4.47;;;2.35;;
73672;SDS011;61972;19.480;-99.240;2023-02-11T04:35:52;3.50;;;1.67;;
73672;SDS011;61972;19.480;-99.240;2023-02-11T04:38:19;3.45;;;2.17;;
73672;SDS011;61972;19.480;-99.240;2023-02-11T04:40:45;5.05;;;2.30;;
73672;SDS011;61972;19.480;-99.240;2023-02-11T04:43:11;5.05;;;1.90;;
73672;SDS011;61972;19.480;-99.240;2023-02-11T04:45:37;7.43;;;2.20;;
73672;SDS011;61972;19.480;-99.240;2023-02-11T04:48:03;4.30;;;2.30;;
73672;SDS011;61972;19.480;-99.240;2023-02-11T04:50:29;4.25;;;2.22;;
73672;SDS011;61972;19.480;-99.240;2023-02-11T04:52:55;4.45;;;2.40;;
73672;SDS011;61972;19.480;-99.240;2023-02-11T04:55:21;4.70;;;2.15;;
73672;SDS011;61972;19.480;-99.240;2023-02-11T04:57:48;4.88;;;2.30;;
73672;SDS011;61972;19.480;-99.240;2023-02-11T05:00:14;3.33;;;2.03;;
73672;SDS011;61972;19.480;-99.240;2023-02-11T05:02:41;5.50;;;1.90;;
73672;SDS011;61972;19.480;-99.240;2023-02-11T05:05:07;6.60;;;2.13;;
73672;SDS011;61972;19.480;-99.240;2023-02-11T05:07:33;9.90;;;1.92;;
73672;SDS011;61972;19.480;-99.240;2023-02-11T05:09:59;5.32;;;2.05;;
73672;SDS011;61972;19.480;-99.240;2023-02-11T05:12:25;7.10;;;2.00;;
73672;SDS011;61972;19.480;-99.240;2023-02-11T05:14:51;5.57;;;2.10;;
73672;SDS011;61972;19.480;-99.240;2023-02-11T05:17:17;7.28;;;2.50;;
73672;SDS011;61972;19.480;-99.240;2023-02-11T05:19:43;4.30;;;2.00;;
73672;SDS011;61972;19.480;-99.240;2023-02-11T05:22:10;6.03;;;2.22;;
73672;SDS011;61972;19.480;-99.240;2023-02-11T05:24:36;4.20;;;1.70;;
73672;SDS011;61972;19.480;-99.240;2023-02-11T05:27:02;5.13;;;1.90;;
73672;SDS011;61972;19.480;-99.240;2023-02-11T05:29:28;3.28;;;1.85;;
73672;SDS011;61972;19.480;-99.240;2023-02-11T05:31:54;5.80;;;2.35;;
73672;SDS011;61972;19.480;-99.240;2023-02-11T05:34:20;9.00;;;2.00;;
73672;SDS011;61972;19.480;-99.240;2023-02-11T05:36:46;3.57;;;1.90;;
73672;SDS011;61972;19.480;-99.240;2023-02-11T05:39:12;3.92;;;1.80;;
73672;SDS011;61972;19.480;-99.240;2023-02-11T05:41:38;3.47;;;2.25;;
73672;SDS011;61972;19.480;-99.240;2023-02-11T05:44:04;5.00;;;1.88;;
73672;SDS011;61972;19.480;-99.240;2023-02-11T05:46:30;3.30;;;1.90;;
73672;SDS011;61972;19.480;-99.240;2023-02-11T05:48:56;3.20;;;1.80;;
73672;SDS011;61972;19.480;-99.240;2023-02-11T05:51:23;4.70;;;1.83;;
73672;SDS011;61972;19.480;-99.240;2023-02-11T05:53:49;6.13;;;2.17;;
73672;SDS011;61972;19.480;-99.240;2023-02-11T05:56:15;5.40;;;1.92;;
73672;SDS011;61972;19.480;-99.240;2023-02-11T05:58:42;3.28;;;1.90;;
73672;SDS011;61972;19.480;-99.240;2023-02-11T06:01:08;5.17;;;1.63;;
73672;SDS011;61972;19.480;-99.240;2023-02-11T06:03:34;4.82;;;2.08;;
73672;SDS011;61972;19.480;-99.240;2023-02-11T06:06:07;3.05;;;1.90;;
73672;SDS011;61972;19.480;-99.240;2023-02-11T06:08:35;3.08;;;1.58;;
73672;SDS011;61972;19.480;-99.240;2023-02-11T06:11:02;3.92;;;1.90;;
73672;SDS011;61972;19.480;-99.240;2023-02-11T06:13:28;3.00;;;1.60;;
73672;SDS011;61972;19.480;-99.240;2023-02-11T06:15:55;4.05;;;1.85;;
73672;SDS011;61972;19.480;-99.240;2023-02-11T06:18:22;6.03;;;2.00;;
73672;SDS011;61972;19.480;-99.240;2023-02-11T06:20:48;2.38;;;1.50;;
73672;SDS011;61972;19.480;-99.240;2023-02-11T06:23:14;3.60;;;2.30;;
73672;SDS011;61972;19.480;-99.240;2023-02-11T06:25:46;3.60;;;1.73;;
73672;SDS011;61972;19.480;-99.240;2023-02-11T06:28:12;6.57;;;2.35;;
73672;SDS011;61972;19.480;-99.240;2023-02-11T06:30:38;4.50;;;1.90;;
73672;SDS011;61972;19.480;-99.240;2023-02-11T06:33:04;3.63;;;1.70;;
73672;SDS011;61972;19.480;-99.240;2023-02-11T06:35:30;7.32;;;1.98;;
73672;SDS011;61972;19.480;-99.240;2023-02-11T06:38:00;4.40;;;1.60;;
73672;SDS011;61972;19.480;-99.240;2023-02-11T06:40:26;4.35;;;1.73;;
73672;SDS011;61972;19.480;-99.240;2023-02-11T06:42:52;2.92;;;1.80;;
73672;SDS011;61972;19.480;-99.240;2023-02-11T06:45:19;5.10;;;1.80;;
73672;SDS011;61972;19.480;-99.240;2023-02-11T06:47:45;3.08;;;1.70;;
73672;SDS011;61972;19.480;-99.240;2023-02-11T06:50:12;3.73;;;1.53;;
73672;SDS011;61972;19.480;-99.240;2023-02-11T06:52:39;4.88;;;2.05;;
73672;SDS011;61972;19.480;-99.240;2023-02-11T06:55:05;4.65;;;1.90;;
73672;SDS011;61972;19.480;-99.240;2023-02-11T06:57:31;3.67;;;1.75;;
73672;SDS011;61972;19.480;-99.240;2023-02-11T06:59:58;3.25;;;1.85;;
73672;SDS011;61972;19.480;-99.240;2023-02-11T07:02:24;3.30;;;1.67;;
73672;SDS011;61972;19.480;-99.240;2023-02-11T07:04:50;4.45;;;1.73;;
73672;SDS011;61972;19.480;-99.240;2023-02-11T07:07:16;3.05;;;1.75;;
73672;SDS011;61972;19.480;-99.240;2023-02-11T07:09:42;3.50;;;1.95;;
73672;SDS011;61972;19.480;-99.240;2023-02-11T07:12:08;4.07;;;1.85;;
73672;SDS011;61972;19.480;-99.240;2023-02-11T07:14:35;4.70;;;1.83;;
73672;SDS011;61972;19.480;-99.240;2023-02-11T07:17:01;2.92;;;1.70;;
73672;SDS011;61972;19.480;-99.240;2023-02-11T07:19:29;4.65;;;1.70;;
73672;SDS011;61972;19.480;-99.240;2023-02-11T07:21:55;3.10;;;1.60;;
73672;SDS011;61972;19.480;-99.240;2023-02-11T07:24:21;4.70;;;1.70;;
73672;SDS011;61972;19.480;-99.240;2023-02-11T07:26:47;3.53;;;1.50;;
73672;SDS011;61972;19.480;-99.240;2023-02-11T07:29:13;2.92;;;1.55;;
73672;SDS011;61972;19.480;-99.240;2023-02-11T07:31:39;3.08;;;1.83;;
73672;SDS011;61972;19.480;-99.240;2023-02-11T07:34:05;3.22;;;1.60;;
73672;SDS011;61972;19.480;-99.240;2023-02-11T07:36:32;4.38;;;1.73;;
73672;SDS011;61972;19.480;-99.240;2023-02-11T07:38:58;3.33;;;1.53;;
73672;SDS011;61972;19.480;-99.240;2023-02-11T07:41:26;2.92;;;1.40;;
73672;SDS011;61972;19.480;-99.240;2023-02-11T07:43:52;4.82;;;1.73;;
73672;SDS011;61972;19.480;-99.240;2023-02-11T07:46:22;2.85;;;1.70;;
73672;SDS011;61972;19.480;-99.240;2023-02-11T07:48:50;2.67;;;1.60;;
73672;SDS011;61972;19.480;-99.240;2023-02-11T07:51:19;3.57;;;1.47;;
73672;SDS011;61972;19.480;-99.240;2023-02-11T07:53:52;3.15;;;1.65;;
73672;SDS011;61972;19.480;-99.240;2023-02-11T07:56:20;3.08;;;1.80;;
73672;SDS011;61972;19.480;-99.240;2023-02-11T07:58:47;2.97;;;1.70;;
73672;SDS011;61972;19.480;-99.240;2023-02-11T08:01:15;6.72;;;1.85;;
73672;SDS011;61972;19.480;-99.240;2023-02-11T08:03:43;3.77;;;1.30;;
73672;SDS011;61972;19.480;-99.240;2023-02-11T08:06:11;2.78;;;1.50;;
73672;SDS011;61972;19.480;-99.240;2023-02-11T08:08:39;4.25;;;1.70;;
73672;SDS011;61972;19.480;-99.240;2023-02-11T08:11:08;3.78;;;1.80;;
73672;SDS011;61972;19.480;-99.240;2023-02-11T08:13:37;2.83;;;1.60;;
73672;SDS011;61972;19.480;-99.240;2023-02-11T08:16:03;3.07;;;1.80;;
73672;SDS011;61972;19.480;-99.240;2023-02-11T08:18:30;3.72;;;1.52;;
73672;SDS011;61972;19.480;-99.240;2023-02-11T08:21:07;3.65;;;1.65;;
73672;SDS011;61972;19.480;-99.240;2023-02-11T08:23:37;2.42;;;1.50;;
73672;SDS011;61972;19.480;-99.240;2023-02-11T08:26:04;2.58;;;1.52;;
73672;SDS011;61972;19.480;-99.240;2023-02-11T08:28:36;3.17;;;1.50;;
73672;SDS011;61972;19.480;-99.240;2023-02-11T08:31:12;2.55;;;1.40;;
73672;SDS011;61972;19.480;-99.240;2023-02-11T08:33:39;2.72;;;1.63;;
73672;SDS011;61972;19.480;-99.240;2023-02-11T08:36:09;3.10;;;1.50;;
73672;SDS011;61972;19.480;-99.240;2023-02-11T08:38:40;3.22;;;1.83;;
73672;SDS011;61972;19.480;-99.240;2023-02-11T08:41:07;2.63;;;1.60;;
73672;SDS011;61972;19.480;-99.240;2023-02-11T08:43:34;2.20;;;1.40;;
73672;SDS011;61972;19.480;-99.240;2023-02-11T08:46:01;2.80;;;1.65;;
73672;SDS011;61972;19.480;-99.240;2023-02-11T08:48:27;9.05;;;5.40;;
73672;SDS011;61972;19.480;-99.240;2023-02-11T08:50:54;9.50;;;5.68;;
73672;SDS011;61972;19.480;-99.240;2023-02-11T08:53:21;9.30;;;5.40;;
73672;SDS011;61972;19.480;-99.240;2023-02-11T08:55:50;8.13;;;5.63;;
73672;SDS011;61972;19.480;-99.240;2023-02-11T08:58:17;9.00;;;5.57;;
73672;SDS011;61972;19.480;-99.240;2023-02-11T09:00:50;12.38;;;6.05;;
73672;SDS011;61972;19.480;-99.240;2023-02-11T09:03:22;11.18;;;5.50;;
73672;SDS011;61972;19.480;-99.240;2023-02-11T09:05:48;12.77;;;5.33;;
73672;SDS011;61972;19.480;-99.240;2023-02-11T09:08:17;11.52;;;5.60;;
73672;SDS011;61972;19.480;-99.240;2023-02-11T09:10:44;10.43;;;5.25;;
73672;SDS011;61972;19.480;-99.240;2023-02-11T09:13:11;8.52;;;5.25;;
73672;SDS011;61972;19.480;-99.240;2023-02-11T09:15:37;7.60;;;4.88;;
73672;SDS011;61972;19.480;-99.240;2023-02-11T09:18:04;6.90;;;4.70;;
73672;SDS011;61972;19.480;-99.240;2023-02-11T09:20:30;9.10;;;4.60;;
73672;SDS011;61972;19.480;-99.240;2023-02-11T09:22:57;9.27;;;4.60;;
73672;SDS011;61972;19.480;-99.240;2023-02-11T09:25:24;9.23;;;4.80;;
73672;SDS011;61972;19.480;-99.240;2023-02-11T09:27:50;6.30;;;4.47;;
73672;SDS011;61972;19.480;-99.240;2023-02-11T09:30:18;6.73;;;4.43;;
73672;SDS011;61972;19.480;-99.240;2023-02-11T09:32:44;8.05;;;4.38;;
73672;SDS011;61972;19.480;-99.240;2023-02-11T09:35:10;8.35;;;4.28;;
73672;SDS011;61972;19.480;-99.240;2023-02-11T09:37:36;8.57;;;4.47;;
73672;SDS011;61972;19.480;-99.240;2023-02-11T09:40:02;7.55;;;4.28;;
73672;SDS011;61972;19.480;-99.240;2023-02-11T09:45:18;7.90;;;3.88;;
73672;SDS011;61972;19.480;-99.240;2023-02-11T09:47:49;5.97;;;3.92;;
73672;SDS011;61972;19.480;-99.240;2023-02-11T09:50:22;6.18;;;4.25;;
73672;SDS011;61972;19.480;-99.240;2023-02-11T09:53:19;6.50;;;3.92;;
73672;SDS011;61972;19.480;-99.240;2023-02-11T09:55:54;6.17;;;3.80;;
73672;SDS011;61972;19.480;-99.240;2023-02-11T09:58:33;6.15;;;3.70;;
73672;SDS011;61972;19.480;-99.240;2023-02-11T10:06:48;6.70;;;3.80;;
73672;SDS011;61972;19.480;-99.240;2023-02-11T10:17:41;5.60;;;3.78;;
73672;SDS011;61972;19.480;-99.240;2023-02-11T10:20:19;6.50;;;3.63;;
73672;SDS011;61972;19.480;-99.240;2023-02-11T10:22:48;5.83;;;3.57;;
73672;SDS011;61972;19.480;-99.240;2023-02-11T10:28:14;5.45;;;3.88;;
73672;SDS011;61972;19.480;-99.240;2023-02-11T10:33:19;5.85;;;3.63;;
73672;SDS011;61972;19.480;-99.240;2023-02-11T10:35:51;5.60;;;3.53;;
73672;SDS011;61972;19.480;-99.240;2023-02-11T10:38:17;5.10;;;3.45;;
73672;SDS011;61972;19.480;-99.240;2023-02-11T10:40:43;5.53;;;3.35;;
73672;SDS011;61972;19.480;-99.240;2023-02-11T10:43:10;5.63;;;3.40;;
73672;SDS011;61972;19.480;-99.240;2023-02-11T10:45:43;5.40;;;3.78;;
73672;SDS011;61972;19.480;-99.240;2023-02-11T10:53:49;6.60;;;3.83;;
73672;SDS011;61972;19.480;-99.240;2023-02-11T10:56:46;4.57;;;3.25;;
73672;SDS011;61972;19.480;-99.240;2023-02-11T10:59:31;5.30;;;3.35;;
73672;SDS011;61972;19.480;-99.240;2023-02-11T11:02:23;4.40;;;3.13;;
73672;SDS011;61972;19.480;-99.240;2023-02-11T11:04:57;4.70;;;3.45;;
73672;SDS011;61972;19.480;-99.240;2023-02-11T11:07:55;4.50;;;3.10;;
73672;SDS011;61972;19.480;-99.240;2023-02-11T11:18:42;4.82;;;3.20;;
73672;SDS011;61972;19.480;-99.240;2023-02-11T11:21:23;5.10;;;3.35;;
73672;SDS011;61972;19.480;-99.240;2023-02-11T11:23:53;4.80;;;3.30;;
73672;SDS011;61972;19.480;-99.240;2023-02-11T11:26:47;4.75;;;3.15;;
73672;SDS011;61972;19.480;-99.240;2023-02-11T11:29:20;4.63;;;3.20;;
73672;SDS011;61972;19.480;-99.240;2023-02-11T11:31:53;5.18;;;3.33;;
73672;SDS011;61972;19.480;-99.240;2023-02-11T11:34:25;5.28;;;3.15;;
73672;SDS011;61972;19.480;-99.240;2023-02-11T11:37:09;4.50;;;3.03;;
73672;SDS011;61972;19.480;-99.240;2023-02-11T11:39:36;4.25;;;3.00;;
73672;SDS011;61972;19.480;-99.240;2023-02-11T11:42:04;4.30;;;3.00;;
73672;SDS011;61972;19.480;-99.240;2023-02-11T11:44:58;4.57;;;3.10;;
73672;SDS011;61972;19.480;-99.240;2023-02-11T11:59:10;5.20;;;3.33;;
73672;SDS011;61972;19.480;-99.240;2023-02-11T12:04:12;12.52;;;4.80;;
73672;SDS011;61972;19.480;-99.240;2023-02-11T12:07:19;10.15;;;4.40;;
73672;SDS011;61972;19.480;-99.240;2023-02-11T12:18:34;6.85;;;4.80;;
73672;SDS011;61972;19.480;-99.240;2023-02-11T12:27:04;6.45;;;4.10;;
73672;SDS011;61972;19.480;-99.240;2023-02-11T12:32:34;6.82;;;3.90;;
73672;SDS011;61972;19.480;-99.240;2023-02-11T12:35:15;6.47;;;4.25;;
73672;SDS011;61972;19.480;-99.240;2023-02-11T12:37:57;6.27;;;4.30;;
73672;SDS011;61972;19.480;-99.240;2023-02-11T12:43:32;6.40;;;4.07;;
73672;SDS011;61972;19.480;-99.240;2023-02-11T12:57:47;5.85;;;3.75;;
73672;SDS011;61972;19.480;-99.240;2023-02-11T13:00:16;5.72;;;3.90;;
73672;SDS011;61972;19.480;-99.240;2023-02-11T13:02:55;7.32;;;4.03;;
73672;SDS011;61972;19.480;-99.240;2023-02-11T13:06:24;6.90;;;3.73;;
73672;SDS011;61972;19.480;-99.240;2023-02-11T13:08:36;4.85;;;3.30;;
73672;SDS011;61972;19.480;-99.240;2023-02-11T13:11:14;6.00;;;3.80;;
73672;SDS011;61972;19.480;-99.240;2023-02-11T13:13:59;5.72;;;3.58;;
73672;SDS011;61972;19.480;-99.240;2023-02-11T13:16:47;5.57;;;3.70;;
73672;SDS011;61972;19.480;-99.240;2023-02-11T13:19:24;6.40;;;3.47;;
73672;SDS011;61972;19.480;-99.240;2023-02-11T13:30:27;5.03;;;3.55;;
73672;SDS011;61972;19.480;-99.240;2023-02-11T13:35:29;6.13;;;3.53;;
73672;SDS011;61972;19.480;-99.240;2023-02-11T13:38:02;6.80;;;3.92;;
73672;SDS011;61972;19.480;-99.240;2023-02-11T13:40:37;5.65;;;3.20;;
73672;SDS011;61972;19.480;-99.240;2023-02-11T13:43:04;5.22;;;3.38;;
73672;SDS011;61972;19.480;-99.240;2023-02-11T13:45:47;5.10;;;3.37;;
73672;SDS011;61972;19.480;-99.240;2023-02-11T13:48:16;6.30;;;3.67;;
73672;SDS011;61972;19.480;-99.240;2023-02-11T13:50:56;4.93;;;3.17;;
73672;SDS011;61972;19.480;-99.240;2023-02-11T13:56:22;5.70;;;3.80;;
73672;SDS011;61972;19.480;-99.240;2023-02-11T13:58:51;5.33;;;3.43;;
73672;SDS011;61972;19.480;-99.240;2023-02-11T14:10:51;6.10;;;3.05;;
73672;SDS011;61972;19.480;-99.240;2023-02-11T14:16:03;4.63;;;3.03;;
73672;SDS011;61972;19.480;-99.240;2023-02-11T14:19:03;5.00;;;2.97;;
73672;SDS011;61972;19.480;-99.240;2023-02-11T14:26:33;5.30;;;3.20;;
73672;SDS011;61972;19.480;-99.240;2023-02-11T14:31:45;6.03;;;3.53;;
73672;SDS011;61972;19.480;-99.240;2023-02-11T14:42:54;4.35;;;3.03;;
73672;SDS011;61972;19.480;-99.240;2023-02-11T14:45:23;5.53;;;3.15;;
73672;SDS011;61972;19.480;-99.240;2023-02-11T14:47:54;5.88;;;3.50;;
73672;SDS011;61972;19.480;-99.240;2023-02-11T14:50:39;5.80;;;3.30;;
73672;SDS011;61972;19.480;-99.240;2023-02-11T14:53:13;4.53;;;2.90;;
73672;SDS011;61972;19.480;-99.240;2023-02-11T14:55:43;5.05;;;3.38;;
73672;SDS011;61972;19.480;-99.240;2023-02-11T14:58:14;4.78;;;3.20;;
73672;SDS011;61972;19.480;-99.240;2023-02-11T15:03:27;5.03;;;3.20;;
73672;SDS011;61972;19.480;-99.240;2023-02-11T15:06:51;5.13;;;3.10;;
73672;SDS011;61972;19.480;-99.240;2023-02-11T15:08:56;4.50;;;2.90;;
73672;SDS011;61972;19.480;-99.240;2023-02-11T15:11:26;4.72;;;3.05;;
73672;SDS011;61972;19.480;-99.240;2023-02-11T15:13:55;5.03;;;3.20;;
73672;SDS011;61972;19.480;-99.240;2023-02-11T15:16:25;4.88;;;3.17;;
73672;SDS011;61972;19.480;-99.240;2023-02-11T15:18:53;4.67;;;2.83;;
73672;SDS011;61972;19.480;-99.240;2023-02-11T15:21:27;4.88;;;3.00;;
73672;SDS011;61972;19.480;-99.240;2023-02-11T15:24:02;4.82;;;2.97;;
73672;SDS011;61972;19.480;-99.240;2023-02-11T15:26:31;4.63;;;3.03;;
73672;SDS011;61972;19.480;-99.240;2023-02-11T15:28:57;5.15;;;2.90;;
73672;SDS011;61972;19.480;-99.240;2023-02-11T15:31:24;4.00;;;2.63;;
73672;SDS011;61972;19.480;-99.240;2023-02-11T15:33:52;4.55;;;2.90;;
73672;SDS011;61972;19.480;-99.240;2023-02-11T15:36:20;4.32;;;2.70;;
73672;SDS011;61972;19.480;-99.240;2023-02-11T15:39:38;5.18;;;3.05;;
73672;SDS011;61972;19.480;-99.240;2023-02-11T15:41:43;5.05;;;3.05;;
73672;SDS011;61972;19.480;-99.240;2023-02-11T15:44:29;5.10;;;3.33;;
73672;SDS011;61972;19.480;-99.240;2023-02-11T15:46:56;4.97;;;3.10;;
73672;SDS011;61972;19.480;-99.240;2023-02-11T15:49:23;4.82;;;3.10;;
73672;SDS011;61972;19.480;-99.240;2023-02-11T15:51:51;4.65;;;2.78;;
73672;SDS011;61972;19.480;-99.240;2023-02-11T15:54:20;5.07;;;3.15;;
73672;SDS011;61972;19.480;-99.240;2023-02-11T15:56:51;5.37;;;2.83;;
73672;SDS011;61972;19.480;-99.240;2023-02-11T16:02:20;4.70;;;3.10;;
73672;SDS011;61972;19.480;-99.240;2023-02-11T16:07:42;4.80;;;2.90;;
73672;SDS011;61972;19.480;-99.240;2023-02-11T16:12:49;4.40;;;3.00;;
73672;SDS011;61972;19.480;-99.240;2023-02-11T16:15:40;5.22;;;3.25;;
73672;SDS011;61972;19.480;-99.240;2023-02-11T16:18:31;5.25;;;3.08;;
73672;SDS011;61972;19.480;-99.240;2023-02-11T16:21:16;5.65;;;2.90;;
73672;SDS011;61972;19.480;-99.240;2023-02-11T16:23:50;4.60;;;2.97;;
73672;SDS011;61972;19.480;-99.240;2023-02-11T16:29:06;4.88;;;3.08;;
73672;SDS011;61972;19.480;-99.240;2023-02-11T16:31:44;4.90;;;3.03;;
73672;SDS011;61972;19.480;-99.240;2023-02-11T16:34:19;6.07;;;3.38;;
73672;SDS011;61972;19.480;-99.240;2023-02-11T16:36:47;5.10;;;2.77;;
73672;SDS011;61972;19.480;-99.240;2023-02-11T16:39:14;4.55;;;2.95;;
73672;SDS011;61972;19.480;-99.240;2023-02-11T16:41:41;5.20;;;3.05;;
73672;SDS011;61972;19.480;-99.240;2023-02-11T16:44:07;4.55;;;3.10;;
73672;SDS011;61972;19.480;-99.240;2023-02-11T16:46:33;5.57;;;3.00;;
73672;SDS011;61972;19.480;-99.240;2023-02-11T16:49:20;5.40;;;3.20;;
73672;SDS011;61972;19.480;-99.240;2023-02-11T16:51:49;4.55;;;2.92;;
73672;SDS011;61972;19.480;-99.240;2023-02-11T16:54:17;4.75;;;2.97;;
73672;SDS011;61972;19.480;-99.240;2023-02-11T16:56:44;4.85;;;3.05;;
73672;SDS011;61972;19.480;-99.240;2023-02-11T16:59:11;5.38;;;3.03;;
73672;SDS011;61972;19.480;-99.240;2023-02-11T17:01:40;4.67;;;3.00;;
73672;SDS011;61972;19.480;-99.240;2023-02-11T17:04:09;4.88;;;3.00;;
73672;SDS011;61972;19.480;-99.240;2023-02-11T17:06:57;5.78;;;3.20;;
73672;SDS011;61972;19.480;-99.240;2023-02-11T17:09:25;6.28;;;3.22;;
73672;SDS011;61972;19.480;-99.240;2023-02-11T17:11:52;4.80;;;3.10;;
73672;SDS011;61972;19.480;-99.240;2023-02-11T17:14:18;5.03;;;3.20;;
73672;SDS011;61972;19.480;-99.240;2023-02-11T17:16:45;5.05;;;3.25;;
73672;SDS011;61972;19.480;-99.240;2023-02-11T17:19:13;4.97;;;3.20;;
73672;SDS011;61972;19.480;-99.240;2023-02-11T17:21:44;4.65;;;3.03;;
73672;SDS011;61972;19.480;-99.240;2023-02-11T17:24:11;5.03;;;2.90;;
73672;SDS011;61972;19.480;-99.240;2023-02-11T17:26:41;4.43;;;2.80;;
73672;SDS011;61972;19.480;-99.240;2023-02-11T17:29:09;5.05;;;3.20;;
73672;SDS011;61972;19.480;-99.240;2023-02-11T17:31:37;4.55;;;2.83;;
73672;SDS011;61972;19.480;-99.240;2023-02-11T17:34:04;4.75;;;3.10;;
73672;SDS011;61972;19.480;-99.240;2023-02-11T17:36:30;5.75;;;3.42;;
73672;SDS011;61972;19.480;-99.240;2023-02-11T17:38:57;4.70;;;3.00;;